createdAt,value
2023-05-16T00:01:30.322Z,10.30
2023-05-16T00:03:58.448Z,10.60
2023-05-16T00:06:26.573Z,9.90
2023-05-16T00:08:54.558Z,9.80
2023-05-16T00:11:22.410Z,8.60
2023-05-16T00:13:51.662Z,9.20
2023-05-16T00:16:21.645Z,9.40
2023-05-16T00:18:49.880Z,9.90
2023-05-16T00:21:17.833Z,9.40
2023-05-16T00:23:45.743Z,9.70
2023-05-16T00:26:13.781Z,10.20
2023-05-16T00:28:41.689Z,9.80
2023-05-16T00:31:09.981Z,9.50
2023-05-16T00:33:37.766Z,9.60
2023-05-16T00:36:05.906Z,9.10
2023-05-16T00:38:33.719Z,8.20
2023-05-16T00:41:01.808Z,7.40
2023-05-16T00:43:29.632Z,8.50
2023-05-16T00:45:58.158Z,8.20
2023-05-16T00:48:26.337Z,7.80
2023-05-16T00:50:54.334Z,8.50
2023-05-16T00:53:22.981Z,7.40
2023-05-16T00:55:51.623Z,8.50
2023-05-16T00:58:19.752Z,7.70
2023-05-16T01:00:48.807Z,9.40
2023-05-16T01:03:18.382Z,8.90
2023-05-16T01:05:46.970Z,8.10
2023-05-16T01:08:14.776Z,8.90
2023-05-16T01:11:18.657Z,8.10
2023-05-16T01:14:23.853Z,8.30
2023-05-16T01:17:03.404Z,7.70
2023-05-16T01:19:34.150Z,7.10
2023-05-16T01:22:37.658Z,7.50
2023-05-16T01:25:07.924Z,7.50
2023-05-16T01:27:36.090Z,7.40
2023-05-16T01:30:15.515Z,7.70
2023-05-16T01:32:44.077Z,7.90
2023-05-16T01:35:14.710Z,7.20
2023-05-16T01:37:52.785Z,6.90
2023-05-16T01:40:31.282Z,7.70
2023-05-16T01:43:03.130Z,7.50
2023-05-16T01:45:35.264Z,7.50
2023-05-16T01:48:10.793Z,6.80
2023-05-16T01:50:44.871Z,7.10
2023-05-16T01:53:19.164Z,6.90
2023-05-16T01:55:49.670Z,7.50
2023-05-16T01:58:21.811Z,7.60
2023-05-16T02:00:49.709Z,6.40
2023-05-16T02:03:18.161Z,6.80
2023-05-16T02:05:46.139Z,7.10
2023-05-16T02:08:14.151Z,7.00
2023-05-16T02:10:42.158Z,7.20
2023-05-16T02:13:10.203Z,6.60
2023-05-16T02:15:38.160Z,6.80
2023-05-16T02:18:06.223Z,6.90
2023-05-16T02:20:34.224Z,6.90
2023-05-16T02:23:03.382Z,6.90
2023-05-16T02:25:31.211Z,6.90
2023-05-16T02:27:58.964Z,6.70
2023-05-16T02:30:26.893Z,6.80
2023-05-16T02:32:54.891Z,6.40
2023-05-16T02:35:22.913Z,7.80
2023-05-16T02:37:51.026Z,7.10
2023-05-16T02:40:18.997Z,7.10
2023-05-16T02:42:46.841Z,7.00
2023-05-16T02:45:14.802Z,7.20
2023-05-16T02:47:42.873Z,6.20
2023-05-16T02:50:10.927Z,6.20
2023-05-16T02:52:38.787Z,6.90
2023-05-16T02:57:38.392Z,6.50
2023-05-16T03:00:06.974Z,6.20
2023-05-16T03:02:34.992Z,6.70
2023-05-16T03:05:02.982Z,7.20
2023-05-16T03:07:30.857Z,7.30
2023-05-16T03:09:58.963Z,7.30
2023-05-16T03:12:26.863Z,6.50
2023-05-16T03:14:54.833Z,6.40
2023-05-16T03:17:22.756Z,7.10
2023-05-16T03:19:51.459Z,6.90
2023-05-16T03:22:19.401Z,7.00
2023-05-16T03:24:47.309Z,6.80
2023-05-16T03:27:15.275Z,6.50
2023-05-16T03:29:43.080Z,6.30
2023-05-16T03:32:11.848Z,7.10
2023-05-16T03:34:39.690Z,6.80
2023-05-16T03:37:08.414Z,7.10
2023-05-16T03:39:36.346Z,7.00
2023-05-16T03:42:04.450Z,6.40
2023-05-16T03:44:32.238Z,6.50
2023-05-16T03:47:00.103Z,6.80
2023-05-16T03:49:30.872Z,6.20
2023-05-16T03:51:58.864Z,6.10
2023-05-16T03:54:27.088Z,6.40
2023-05-16T03:56:55.053Z,6.20
2023-05-16T03:59:22.992Z,5.80
2023-05-16T04:01:50.838Z,6.20
2023-05-16T04:04:18.632Z,6.50
2023-05-16T04:06:46.499Z,6.20
2023-05-16T04:09:14.266Z,6.30
2023-05-16T04:11:42.096Z,6.20
2023-05-16T04:14:09.993Z,7.10
2023-05-16T04:16:37.896Z,6.00
2023-05-16T04:19:05.893Z,7.10
2023-05-16T04:21:33.861Z,7.20
2023-05-16T04:24:02.009Z,7.30
2023-05-16T04:26:30.381Z,7.60
2023-05-16T04:29:00.140Z,7.80
2023-05-16T04:31:28.413Z,7.00
2023-05-16T04:33:56.282Z,7.60
2023-05-16T04:36:24.289Z,7.70
2023-05-16T04:38:52.545Z,7.90
2023-05-16T04:41:20.414Z,7.70
2023-05-16T04:43:48.673Z,8.00
2023-05-16T04:46:16.723Z,7.60
2023-05-16T04:48:44.593Z,7.30
2023-05-16T04:51:12.515Z,7.40
2023-05-16T04:53:40.337Z,8.20
2023-05-16T04:56:08.208Z,7.70
2023-05-16T04:58:36.109Z,7.60
2023-05-16T05:01:04.356Z,7.70
2023-05-16T05:03:32.288Z,7.80
2023-05-16T05:06:00.134Z,7.80
2023-05-16T05:08:28.015Z,8.30
2023-05-16T05:10:56.499Z,8.00
2023-05-16T05:13:24.425Z,8.00
2023-05-16T05:15:52.541Z,7.70
2023-05-16T05:18:20.462Z,7.80
2023-05-16T05:20:48.384Z,8.10
2023-05-16T05:23:16.228Z,8.10
2023-05-16T05:25:44.128Z,8.10
2023-05-16T05:28:12.194Z,8.80
2023-05-16T05:30:42.292Z,8.50
2023-05-16T05:33:11.780Z,8.30
2023-05-16T05:35:39.780Z,8.00
2023-05-16T05:38:08.061Z,10.20
2023-05-16T05:40:35.910Z,8.20
2023-05-16T05:43:03.928Z,8.90
2023-05-16T05:45:31.830Z,8.70
2023-05-16T05:47:59.813Z,9.40
2023-05-16T05:50:27.817Z,10.40
2023-05-16T05:52:56.208Z,11.30
2023-05-16T05:55:24.129Z,12.60
2023-05-16T05:57:52.244Z,14.50
2023-05-16T06:00:20.185Z,14.30
2023-05-16T06:02:48.836Z,14.50
2023-05-16T06:05:16.830Z,13.90
2023-05-16T06:07:44.752Z,14.30
2023-05-16T06:10:12.661Z,13.40
2023-05-16T06:12:40.599Z,14.50
2023-05-16T06:15:10.161Z,14.90
2023-05-16T06:17:38.668Z,13.60
2023-05-16T06:20:07.320Z,13.70
2023-05-16T06:22:35.235Z,14.40
2023-05-16T06:25:03.520Z,16.80
2023-05-16T06:27:31.332Z,14.90
2023-05-16T06:29:59.137Z,14.70
2023-05-16T06:32:27.060Z,14.10
2023-05-16T06:34:55.011Z,14.40
2023-05-16T06:37:23.599Z,15.20
2023-05-16T06:39:51.422Z,16.10
2023-05-16T06:42:20.529Z,15.00
2023-05-16T06:44:48.519Z,16.40
2023-05-16T06:47:16.820Z,15.70
2023-05-16T06:49:44.765Z,15.30
2023-05-16T06:52:12.830Z,15.90
2023-05-16T06:54:40.631Z,15.00
2023-05-16T06:57:11.521Z,15.40
2023-05-16T06:59:39.988Z,15.80
2023-05-16T07:02:07.798Z,15.40
2023-05-16T07:04:38.018Z,15.00
2023-05-16T07:07:07.861Z,16.20
2023-05-16T07:09:35.838Z,15.40
2023-05-16T07:12:03.786Z,15.00
2023-05-16T07:14:31.839Z,15.80
2023-05-16T07:16:59.899Z,15.00
2023-05-16T07:19:27.966Z,15.50
2023-05-16T07:21:56.132Z,16.20
2023-05-16T07:24:23.920Z,17.00
2023-05-16T07:26:51.889Z,15.60
2023-05-16T07:29:19.784Z,15.30
2023-05-16T07:31:47.663Z,14.30
2023-05-16T07:34:15.568Z,13.90
2023-05-16T07:36:43.430Z,14.10
2023-05-16T07:39:11.293Z,15.00
2023-05-16T07:41:39.262Z,14.40
2023-05-16T07:44:07.256Z,13.20
2023-05-16T07:46:35.472Z,14.40
2023-05-16T07:49:03.391Z,13.90
2023-05-16T07:51:32.000Z,14.00
2023-05-16T07:53:59.942Z,13.70
2023-05-16T07:56:28.001Z,14.20
2023-05-16T07:58:56.128Z,14.00
2023-05-16T08:01:24.002Z,14.30
2023-05-16T08:03:53.702Z,13.00
2023-05-16T08:06:21.693Z,12.90
2023-05-16T08:08:49.552Z,12.80
2023-05-16T08:11:19.018Z,14.60
2023-05-16T08:13:46.943Z,14.10
2023-05-16T08:16:14.966Z,13.00
2023-05-16T08:18:42.953Z,13.40
2023-05-16T08:21:10.931Z,13.30
2023-05-16T08:23:38.800Z,13.40
2023-05-16T08:26:06.679Z,15.30
2023-05-16T08:28:34.776Z,13.80
2023-05-16T08:31:02.685Z,11.90
2023-05-16T08:33:30.721Z,13.30
2023-05-16T08:35:58.946Z,12.90
2023-05-16T08:38:26.803Z,14.00
2023-05-16T08:40:54.820Z,13.20
2023-05-16T08:43:23.033Z,13.10
2023-05-16T08:45:50.971Z,12.40
2023-05-16T08:48:23.602Z,13.50
2023-05-16T08:50:51.787Z,15.50
2023-05-16T08:53:31.858Z,14.50
2023-05-16T08:56:01.350Z,13.30
2023-05-16T08:58:30.186Z,12.40
2023-05-16T09:00:58.390Z,12.90
2023-05-16T09:03:29.090Z,13.20
2023-05-16T09:05:57.890Z,12.50
2023-05-16T09:08:26.429Z,14.20
2023-05-16T09:10:54.873Z,13.80
2023-05-16T09:13:22.704Z,13.00
2023-05-16T09:16:10.898Z,12.50
2023-05-16T09:18:59.709Z,13.00
2023-05-16T09:21:34.953Z,13.60
2023-05-16T09:24:10.108Z,13.40
2023-05-16T09:26:39.427Z,14.00
2023-05-16T09:29:11.985Z,13.90
2023-05-16T09:31:41.177Z,13.70
2023-05-16T09:34:11.358Z,12.70
2023-05-16T09:36:40.665Z,13.50
2023-05-16T09:39:10.057Z,12.60
2023-05-16T09:41:37.951Z,12.80
2023-05-16T09:44:06.806Z,12.50
2023-05-16T09:46:36.265Z,13.70
2023-05-16T09:49:04.296Z,12.70
2023-05-16T09:51:32.450Z,12.20
2023-05-16T09:54:00.659Z,10.90
2023-05-16T09:56:30.173Z,11.70
2023-05-16T09:58:58.066Z,11.00
2023-05-16T10:01:26.169Z,11.30
2023-05-16T10:03:54.200Z,11.50
2023-05-16T10:06:22.889Z,12.20
2023-05-16T10:08:51.790Z,12.10
2023-05-16T10:11:20.051Z,11.30
2023-05-16T10:13:53.297Z,11.10
2023-05-16T10:16:24.377Z,10.90
2023-05-16T10:18:53.254Z,10.70
2023-05-16T10:21:23.588Z,12.20
2023-05-16T10:23:53.370Z,11.00
2023-05-16T10:26:23.635Z,11.60
2023-05-16T10:28:52.228Z,10.40
2023-05-16T10:31:21.014Z,9.60
2023-05-16T10:33:49.077Z,10.00
2023-05-16T10:36:18.400Z,10.60
2023-05-16T10:38:46.943Z,11.10
2023-05-16T10:41:15.323Z,10.00
2023-05-16T10:43:46.509Z,10.00
2023-05-16T10:46:14.986Z,10.20
2023-05-16T10:48:43.337Z,11.70
2023-05-16T10:51:23.383Z,10.90
2023-05-16T10:53:55.293Z,10.40
2023-05-16T10:56:27.425Z,9.90
2023-05-16T10:58:56.950Z,11.30
2023-05-16T11:01:28.212Z,10.70
2023-05-16T11:03:59.837Z,11.40
2023-05-16T11:06:43.320Z,12.30
2023-05-16T11:09:14.235Z,10.30
2023-05-16T11:11:48.690Z,10.50
2023-05-16T11:14:33.151Z,9.60
2023-05-16T11:17:07.774Z,9.70
2023-05-16T11:19:41.859Z,10.90
2023-05-16T11:22:19.414Z,10.60
2023-05-16T11:25:00.334Z,11.20
2023-05-16T11:27:34.189Z,10.20
2023-05-16T11:30:05.154Z,10.50
2023-05-16T11:32:37.994Z,9.50
2023-05-16T11:35:09.597Z,9.60
2023-05-16T11:37:42.156Z,9.30
2023-05-16T11:40:12.343Z,10.70
2023-05-16T11:42:47.653Z,8.90
2023-05-16T11:45:17.759Z,9.20
2023-05-16T11:47:48.406Z,8.00
2023-05-16T11:50:22.065Z,9.20
2023-05-16T11:55:40.132Z,8.90
2023-05-16T11:58:10.458Z,8.60
2023-05-16T12:00:47.908Z,9.20
2023-05-16T12:03:16.160Z,8.80
2023-05-16T12:05:55.431Z,8.30
2023-05-16T12:08:24.685Z,9.60
2023-05-16T12:10:54.082Z,8.70
2023-05-16T12:13:24.280Z,8.90
2023-05-16T12:15:55.836Z,10.10
2023-05-16T12:18:25.128Z,8.60
2023-05-16T12:20:53.387Z,8.50
2023-05-16T12:23:21.422Z,8.70
2023-05-16T12:25:49.648Z,11.20
2023-05-16T12:28:17.787Z,11.40
2023-05-16T12:30:48.084Z,8.90
2023-05-16T12:33:19.274Z,8.50
2023-05-16T12:35:48.010Z,7.80
2023-05-16T12:38:17.768Z,7.70
2023-05-16T12:40:47.152Z,7.60
2023-05-16T12:43:23.161Z,7.40
2023-05-16T12:45:56.559Z,7.90
2023-05-16T12:51:10.516Z,7.60
2023-05-16T12:53:57.668Z,7.10
2023-05-16T12:56:29.927Z,6.90
2023-05-16T12:58:59.967Z,6.70
2023-05-16T13:01:27.941Z,6.30
2023-05-16T13:03:56.103Z,7.10
2023-05-16T13:06:24.108Z,7.50
2023-05-16T13:08:52.181Z,6.80
2023-05-16T13:11:20.047Z,7.30
2023-05-16T13:13:48.082Z,6.20
2023-05-16T13:16:16.556Z,6.40
2023-05-16T13:18:44.590Z,6.40
2023-05-16T13:21:12.396Z,5.90
2023-05-16T13:23:40.183Z,5.70
2023-05-16T13:26:08.299Z,6.50
2023-05-16T13:28:36.572Z,6.30
2023-05-16T13:31:04.661Z,6.80
2023-05-16T13:33:32.824Z,6.40
2023-05-16T13:36:00.914Z,6.00
2023-05-16T13:38:28.873Z,6.20
2023-05-16T13:40:56.680Z,5.80
2023-05-16T13:43:24.538Z,6.00
2023-05-16T13:45:52.790Z,5.80
2023-05-16T13:48:20.953Z,5.60
2023-05-16T13:50:48.915Z,6.30
2023-05-16T13:53:16.694Z,5.80
2023-05-16T13:55:44.564Z,6.80
2023-05-16T13:58:12.491Z,6.00
2023-05-16T14:00:45.190Z,6.20
2023-05-16T14:05:41.854Z,6.10
2023-05-16T14:08:09.863Z,6.50
2023-05-16T14:10:38.171Z,6.00
2023-05-16T14:13:06.316Z,6.90
2023-05-16T14:15:34.272Z,6.20
2023-05-16T14:18:05.567Z,6.40
2023-05-16T14:20:33.494Z,6.00
2023-05-16T14:23:01.372Z,6.50
2023-05-16T14:25:30.288Z,5.70
2023-05-16T14:27:58.624Z,6.30
2023-05-16T14:30:27.613Z,6.20
2023-05-16T14:32:56.276Z,5.80
2023-05-16T14:35:24.293Z,6.10
2023-05-16T14:37:52.121Z,5.90
2023-05-16T14:40:21.778Z,6.30
2023-05-16T14:42:52.390Z,6.70
2023-05-16T14:45:21.884Z,6.40
2023-05-16T14:47:49.732Z,5.30
2023-05-16T14:50:17.666Z,6.30
2023-05-16T14:52:45.461Z,6.60
2023-05-16T14:55:13.417Z,6.70
2023-05-16T14:57:43.358Z,6.90
2023-05-16T15:00:17.337Z,6.60
2023-05-16T15:02:45.272Z,6.70
2023-05-16T15:05:13.330Z,7.40
2023-05-16T15:07:41.485Z,6.60
2023-05-16T15:10:09.994Z,7.20
2023-05-16T15:12:40.911Z,8.30
2023-05-16T15:15:13.013Z,7.40
2023-05-16T15:17:42.495Z,7.10
2023-05-16T15:20:13.482Z,7.10
2023-05-16T15:22:41.697Z,6.60
2023-05-16T15:25:11.028Z,7.50
2023-05-16T15:27:41.450Z,7.00
2023-05-16T15:30:09.634Z,6.40
2023-05-16T15:32:37.730Z,7.40
2023-05-16T15:35:06.276Z,6.90
2023-05-16T15:37:34.984Z,7.30
2023-05-16T15:40:05.131Z,7.50
2023-05-16T15:42:33.087Z,6.80
2023-05-16T15:45:01.084Z,7.10
2023-05-16T15:47:28.936Z,6.60
2023-05-16T15:49:56.907Z,7.20
2023-05-16T15:52:24.896Z,6.90
2023-05-16T15:54:52.872Z,7.50
2023-05-16T15:57:20.884Z,7.70
2023-05-16T15:59:48.805Z,8.00
2023-05-16T16:02:16.883Z,7.60
2023-05-16T16:04:44.842Z,8.70
2023-05-16T16:07:12.894Z,8.40
2023-05-16T16:09:41.010Z,8.80
2023-05-16T16:12:09.093Z,9.10
2023-05-16T16:14:37.082Z,9.10
2023-05-16T16:17:05.067Z,9.10
2023-05-16T16:19:32.891Z,8.60
2023-05-16T16:22:00.745Z,9.50
2023-05-16T16:24:28.784Z,9.10
2023-05-16T16:26:56.725Z,9.90
2023-05-16T16:29:26.249Z,10.60
2023-05-16T16:31:54.265Z,10.40
2023-05-16T16:34:23.387Z,9.90
2023-05-16T16:36:51.536Z,9.40
2023-05-16T16:39:19.955Z,9.20
2023-05-16T16:41:47.879Z,9.40
2023-05-16T16:44:15.912Z,9.90
2023-05-16T16:46:44.050Z,9.60
2023-05-16T16:49:11.992Z,9.60
2023-05-16T16:51:39.862Z,9.30
2023-05-16T16:54:07.978Z,10.10
2023-05-16T16:56:36.203Z,12.10
2023-05-16T16:59:04.265Z,12.70
2023-05-16T17:01:32.769Z,13.20
2023-05-16T17:04:02.046Z,14.10
2023-05-16T17:06:30.225Z,13.80
2023-05-16T17:09:02.508Z,12.80
2023-05-16T17:11:31.376Z,12.80
2023-05-16T17:13:59.406Z,12.90
2023-05-16T17:16:30.206Z,12.60
2023-05-16T17:18:58.179Z,13.90
2023-05-16T17:21:26.888Z,12.90
2023-05-16T17:23:55.208Z,13.70
2023-05-16T17:26:22.928Z,14.70
2023-05-16T17:28:50.965Z,15.40
2023-05-16T17:31:18.809Z,15.30
2023-05-16T17:33:46.742Z,14.90
2023-05-16T17:36:14.629Z,14.90
2023-05-16T17:38:42.752Z,13.40
2023-05-16T17:41:10.806Z,12.80
2023-05-16T17:43:38.580Z,12.80
2023-05-16T17:46:06.473Z,12.30
2023-05-16T17:48:34.605Z,12.50
2023-05-16T17:51:02.930Z,10.70
2023-05-16T17:53:30.856Z,10.80
2023-05-16T17:56:00.374Z,11.60
2023-05-16T17:58:28.449Z,11.40
2023-05-16T18:00:56.446Z,10.20
2023-05-16T18:03:24.437Z,10.90
2023-05-16T18:05:52.467Z,9.90
2023-05-16T18:08:20.622Z,10.00
2023-05-16T18:10:52.086Z,10.10
2023-05-16T18:13:21.981Z,11.40
2023-05-16T18:15:50.682Z,13.50
2023-05-16T18:18:18.704Z,11.60
2023-05-16T18:20:47.192Z,12.90
2023-05-16T18:23:15.059Z,11.30
2023-05-16T18:25:43.046Z,11.80
2023-05-16T18:28:10.923Z,12.60
2023-05-16T18:30:39.073Z,11.20
2023-05-16T18:33:06.942Z,11.70
2023-05-16T18:35:34.877Z,11.60
2023-05-16T18:38:04.139Z,11.00
2023-05-16T18:40:32.450Z,11.20
2023-05-16T18:43:00.409Z,10.70
2023-05-16T18:45:30.258Z,12.00
2023-05-16T18:47:58.630Z,11.00
2023-05-16T18:50:27.783Z,11.20
2023-05-16T18:52:57.697Z,11.90
2023-05-16T18:55:25.979Z,12.20
2023-05-16T18:57:54.157Z,12.20
2023-05-16T19:00:22.246Z,14.10
2023-05-16T19:02:50.616Z,15.00
2023-05-16T19:05:19.863Z,13.20
2023-05-16T19:07:48.029Z,14.80
2023-05-16T19:10:16.086Z,14.00
2023-05-16T19:12:46.953Z,14.60
2023-05-16T19:15:15.417Z,13.70
2023-05-16T19:17:43.538Z,12.10
2023-05-16T19:20:11.608Z,12.80
2023-05-16T19:22:39.513Z,13.40
2023-05-16T19:25:07.894Z,12.30
2023-05-16T19:27:35.881Z,12.30
2023-05-16T19:30:04.062Z,12.70
2023-05-16T19:32:32.033Z,11.60
2023-05-16T19:34:59.915Z,13.30
2023-05-16T19:37:27.887Z,13.10
2023-05-16T19:39:55.754Z,15.40
2023-05-16T19:42:23.592Z,13.30
2023-05-16T19:44:51.595Z,13.40
2023-05-16T19:47:19.585Z,13.40
2023-05-16T19:49:47.656Z,14.70
2023-05-16T19:52:15.507Z,11.80
2023-05-16T19:54:43.790Z,12.80
2023-05-16T19:57:11.884Z,12.30
2023-05-16T19:59:39.851Z,11.80
2023-05-16T20:02:07.794Z,11.70
2023-05-16T20:04:35.687Z,10.90
2023-05-16T20:07:03.549Z,12.20
2023-05-16T20:09:31.444Z,11.90
2023-05-16T20:11:59.676Z,11.40
2023-05-16T20:14:29.268Z,10.60
2023-05-16T20:16:57.324Z,8.90
2023-05-16T20:19:25.514Z,10.10
2023-05-16T20:21:53.576Z,11.60
2023-05-16T20:24:21.555Z,9.80
2023-05-16T20:26:49.950Z,11.00
2023-05-16T20:29:17.861Z,9.40
2023-05-16T20:31:45.742Z,8.50
2023-05-16T20:34:14.017Z,9.10
2023-05-16T20:36:42.055Z,8.80
2023-05-16T20:39:10.015Z,8.30
2023-05-16T20:41:37.961Z,8.50
2023-05-16T20:44:06.885Z,7.90
2023-05-16T20:46:34.896Z,8.30
2023-05-16T20:49:02.847Z,8.10
2023-05-16T20:51:31.114Z,8.80
2023-05-16T20:53:59.215Z,9.00
2023-05-16T20:56:27.065Z,7.90
2023-05-16T20:58:54.998Z,7.70
2023-05-16T21:01:22.977Z,7.10
2023-05-16T21:03:50.847Z,7.00
2023-05-16T21:06:18.743Z,7.70
2023-05-16T21:08:46.609Z,7.60
2023-05-16T21:11:14.553Z,8.70
2023-05-16T21:13:42.452Z,7.40
2023-05-16T21:16:12.602Z,7.20
2023-05-16T21:18:40.943Z,7.20
2023-05-16T21:21:09.028Z,7.90
2023-05-16T21:23:36.830Z,8.00
2023-05-16T21:26:04.711Z,7.80
2023-05-16T21:28:36.857Z,8.50
2023-05-16T21:31:08.227Z,8.00
2023-05-16T21:33:36.156Z,7.70
2023-05-16T21:36:04.366Z,7.60
2023-05-16T21:38:32.279Z,8.20
2023-05-16T21:41:00.387Z,8.60
2023-05-16T21:43:28.212Z,7.70
2023-05-16T21:45:56.007Z,8.60
2023-05-16T21:48:24.027Z,8.70
2023-05-16T21:50:52.075Z,7.10
2023-05-16T21:53:19.874Z,7.70
2023-05-16T21:55:47.884Z,7.60
2023-05-16T21:58:15.824Z,8.20
2023-05-16T22:00:43.730Z,7.30
2023-05-16T22:03:11.718Z,7.80
2023-05-16T22:05:39.781Z,6.40
2023-05-16T22:08:08.098Z,8.10
2023-05-16T22:10:36.195Z,7.70
2023-05-16T22:13:04.089Z,8.00
2023-05-16T22:15:31.931Z,8.00
2023-05-16T22:17:59.976Z,7.20
2023-05-16T22:20:28.333Z,7.60
2023-05-16T22:22:56.176Z,7.30
2023-05-16T22:25:24.085Z,7.20
2023-05-16T22:27:52.210Z,7.80
2023-05-16T22:30:20.114Z,8.20
2023-05-16T22:32:48.080Z,7.00
2023-05-16T22:35:16.168Z,7.90
2023-05-16T22:37:44.075Z,7.30
2023-05-16T22:40:12.025Z,7.40
2023-05-16T22:42:39.962Z,8.50
2023-05-16T22:45:08.377Z,8.60
2023-05-16T22:47:36.367Z,8.60
2023-05-16T22:50:04.726Z,7.30
2023-05-16T22:52:32.704Z,7.70
2023-05-16T22:55:02.056Z,8.10
2023-05-16T22:57:30.149Z,8.20
2023-05-16T23:00:00.283Z,8.20
2023-05-16T23:02:28.264Z,7.10
2023-05-16T23:04:56.561Z,6.40
2023-05-16T23:07:24.654Z,6.30
2023-05-16T23:09:52.514Z,7.40
2023-05-16T23:12:21.569Z,7.10
2023-05-16T23:14:49.434Z,8.70
2023-05-16T23:17:17.314Z,7.30
2023-05-16T23:19:45.174Z,8.30
2023-05-16T23:22:13.171Z,8.60
2023-05-16T23:24:41.044Z,8.80
2023-05-16T23:27:08.934Z,8.70
2023-05-16T23:29:37.101Z,8.00
2023-05-16T23:32:05.291Z,7.80
2023-05-16T23:34:33.442Z,7.40
2023-05-16T23:37:01.572Z,8.10
2023-05-16T23:39:29.591Z,8.50
2023-05-16T23:41:58.724Z,7.80
2023-05-16T23:44:26.654Z,8.40
2023-05-16T23:46:54.463Z,6.90
2023-05-16T23:49:22.472Z,8.00
2023-05-16T23:51:56.705Z,7.70
2023-05-16T23:54:26.482Z,7.50
2023-05-16T23:56:54.423Z,7.40
2023-05-16T23:59:22.499Z,8.20
